Terminal Aerodrome Forecast
Issued by NWS Rapid City, SD

Home | Current Version | Previous Version | Graphics & Text | Print | Product List | Glossary On
Versions: 1 2 3 4 5 6 7 8 9 10 11 12 13 14 15 16 17 18 19 20 21 22 23 24 25
000
FTUS43 KUNR 270441 AAD
TAFRAP
TAF AMD
KRAP 270441Z 2705/2724 VRB05KT P6SM BKN010
      TEMPO 2706/2707 -TSRA BKN035CB
     FM270700 VRB05KT P6SM SCT010 BKN100
      TEMPO 2707/2711 BKN010
     FM271500 15007KT P6SM SCT050 SCT120=

USA.gov is the U.S. government's official web portal to all federal, state and local government web resources and services.